Time;durP1;ratioP1;P1;durP2;ratioP2;P2;SDS_P1;SDS_P2;PMS_P1;PMS_P2;Temp;Humidity;BMP_temperature;BMP_pressure;BME280_temperature;BME280_humidity;BME280_pressure;Samples;Min_cycle;Max_cycle;Signal;HPM_P1;HPM_P2
2022/03/01 00:01:40;;;;;;;23.30;13.98;;;1.60;99.90;;;;;;5080389;28;20137;-65
2022/03/01 00:04:06;;;;;;;20.20;12.75;;;1.60;99.90;;;;;;5065388;28;20060;-65
2022/03/01 00:06:32;;;;;;;23.50;13.27;;;1.70;99.90;;;;;;5066342;28;20045;-65
2022/03/01 00:08:58;;;;;;;21.33;13.50;;;1.70;99.90;;;;;;5067102;28;20049;-65
2022/03/01 00:11:24;;;;;;;19.92;12.70;;;1.70;99.90;;;;;;5068478;28;20104;-65
2022/03/01 00:13:50;;;;;;;19.08;13.25;;;1.60;99.90;;;;;;5086728;28;20040;-65
2022/03/01 00:16:16;;;;;;;21.48;13.35;;;1.70;99.90;;;;;;5082885;28;20055;-65
2022/03/01 00:18:43;;;;;;;22.40;13.48;;;1.50;99.90;;;;;;5066447;28;20052;-65
2022/03/01 00:21:08;;;;;;;23.65;13.00;;;1.50;99.90;;;;;;5066377;28;20579;-65
2022/03/01 00:23:34;;;;;;;19.65;12.85;;;1.50;99.90;;;;;;5067866;28;20067;-65
2022/03/01 00:26:00;;;;;;;22.25;13.45;;;1.50;99.90;;;;;;5066408;28;20081;-65
2022/03/01 00:28:25;;;;;;;24.20;14.30;;;1.50;99.90;;;;;;5066334;28;20104;-64
2022/03/01 00:30:51;;;;;;;19.75;13.15;;;1.40;99.90;;;;;;5066189;28;20041;-64
2022/03/01 00:33:17;;;;;;;21.13;14.48;;;1.40;99.90;;;;;;5084503;28;20037;-65
2022/03/01 00:35:42;;;;;;;23.23;14.82;;;1.40;99.90;;;;;;5086371;28;20078;-65
2022/03/01 00:38:08;;;;;;;23.88;15.95;;;1.40;99.90;;;;;;5086008;28;20041;-65
2022/03/01 00:40:34;;;;;;;21.65;13.63;;;1.40;99.90;;;;;;5086362;28;20052;-65
2022/03/01 00:42:59;;;;;;;22.17;14.32;;;1.40;99.90;;;;;;5069629;28;20052;-65
2022/03/01 00:45:25;;;;;;;25.35;14.27;;;1.40;99.90;;;;;;5088560;28;20044;-65
2022/03/01 00:47:51;;;;;;;21.10;13.85;;;1.40;99.90;;;;;;5086062;28;20051;-65
2022/03/01 00:50:17;;;;;;;19.77;13.27;;;1.30;99.90;;;;;;5077471;28;20098;-65
2022/03/01 00:52:42;;;;;;;22.35;14.65;;;1.30;99.90;;;;;;5065394;28;20041;-65
2022/03/01 00:55:08;;;;;;;20.42;13.07;;;1.10;99.90;;;;;;5066285;28;20040;-65
2022/03/01 00:57:34;;;;;;;20.52;13.52;;;1.10;99.90;;;;;;5065714;28;20041;-65
2022/03/01 01:00:00;;;;;;;23.98;14.77;;;1.00;99.90;;;;;;5069058;28;20129;-65
2022/03/01 01:02:26;;;;;;;23.58;15.20;;;1.00;99.90;;;;;;5085733;28;20047;-65
2022/03/01 01:04:52;;;;;;;22.75;14.18;;;0.90;99.90;;;;;;5085794;28;20048;-65
2022/03/01 01:07:17;;;;;;;23.98;14.52;;;1.00;99.90;;;;;;5085125;28;20573;-65
2022/03/01 01:09:43;;;;;;;21.27;13.63;;;1.00;99.90;;;;;;5082075;28;20186;-65
2022/03/01 01:12:10;;;;;;;22.25;12.88;;;1.00;99.90;;;;;;5064177;28;20045;-65
2022/03/01 01:14:36;;;;;;;21.38;14.13;;;0.90;99.90;;;;;;5065792;28;20575;-65
2022/03/01 01:17:01;;;;;;;23.33;14.02;;;0.80;99.90;;;;;;5066784;28;20044;-65
2022/03/01 01:19:27;;;;;;;22.70;13.88;;;0.90;99.90;;;;;;5069296;28;20041;-64
2022/03/01 01:24:37;;;;;;;22.83;14.40;;;0.70;99.90;;;;;;5065412;28;20151;-65
2022/03/01 01:27:03;;;;;;;19.67;13.10;;;0.70;99.90;;;;;;5082967;28;20048;-64
2022/03/01 01:29:29;;;;;;;19.73;13.15;;;0.80;99.90;;;;;;5085338;28;20068;-64
2022/03/01 01:31:55;;;;;;;22.67;13.88;;;0.80;99.90;;;;;;5085086;28;20055;-64
2022/03/01 01:34:20;;;;;;;21.20;13.48;;;0.80;99.90;;;;;;5084876;28;20040;-64
2022/03/01 01:36:46;;;;;;;24.02;13.85;;;0.70;99.90;;;;;;5084177;28;20063;-64
2022/03/01 01:39:12;;;;;;;20.15;12.63;;;0.70;99.90;;;;;;5083314;28;20040;-64
2022/03/01 01:41:37;;;;;;;23.80;15.27;;;0.70;99.90;;;;;;5083398;28;20048;-64
2022/03/01 01:44:07;;;;;;;23.05;13.73;;;0.80;99.90;;;;;;5085087;28;20036;-64
2022/03/01 01:46:33;;;;;;;25.67;13.95;;;0.80;99.90;;;;;;5085130;28;20110;-64
2022/03/01 01:48:59;;;;;;;23.15;14.82;;;0.70;99.90;;;;;;5071090;28;20389;-64
2022/03/01 01:51:26;;;;;;;24.80;13.48;;;0.70;99.90;;;;;;5064166;28;20070;-64
2022/03/01 01:53:52;;;;;;;23.60;14.05;;;0.60;99.90;;;;;;5064862;28;20053;-64
2022/03/01 01:56:18;;;;;;;23.52;14.45;;;0.70;99.90;;;;;;5064501;28;20052;-64
2022/03/01 01:58:44;;;;;;;23.40;13.70;;;0.70;99.90;;;;;;5079674;28;20053;-64
2022/03/01 02:01:10;;;;;;;24.45;15.52;;;0.70;99.90;;;;;;5084791;28;20039;-64
2022/03/01 02:03:36;;;;;;;22.88;14.00;;;0.70;99.90;;;;;;5084351;28;20080;-64
2022/03/01 02:06:02;;;;;;;24.05;13.60;;;0.70;99.90;;;;;;5084111;28;20041;-64
2022/03/01 02:08:32;;;;;;;23.33;14.82;;;0.60;99.90;;;;;;5070769;28;20049;-64
2022/03/01 02:10:58;;;;;;;20.70;13.50;;;0.60;99.90;;;;;;5064064;28;20044;-64
2022/03/01 02:13:24;;;;;;;27.52;13.82;;;0.70;99.90;;;;;;5046497;28;20048;-64
2022/03/01 02:15:51;;;;;;;21.95;12.70;;;0.70;99.90;;;;;;5064608;28;20100;-64
2022/03/01 02:18:17;;;;;;;24.88;14.95;;;0.70;99.90;;;;;;5075461;28;20048;-64
2022/03/01 02:20:43;;;;;;;22.00;13.88;;;0.70;99.90;;;;;;5099873;28;20056;-64
2022/03/01 02:23:09;;;;;;;23.40;14.63;;;0.70;99.90;;;;;;5082501;28;20048;-64
2022/03/01 02:25:36;;;;;;;21.88;13.93;;;0.60;99.90;;;;;;5084055;28;20064;-64
2022/03/01 02:28:02;;;;;;;22.45;13.70;;;0.60;99.90;;;;;;5074445;28;20104;-64
2022/03/01 02:30:27;;;;;;;26.40;16.08;;;0.60;99.90;;;;;;5062939;28;20052;-64
2022/03/01 02:32:53;;;;;;;24.88;15.07;;;0.60;99.90;;;;;;5063821;28;20045;-64
2022/03/01 02:35:19;;;;;;;24.80;14.63;;;0.60;99.90;;;;;;5079448;28;20045;-64
2022/03/01 02:37:45;;;;;;;25.42;14.40;;;0.60;99.90;;;;;;5070033;28;20048;-64
2022/03/01 02:40:12;;;;;;;26.83;16.10;;;0.60;99.90;;;;;;5084072;28;20040;-64
2022/03/01 02:42:40;;;;;;;21.47;14.00;;;0.70;99.90;;;;;;5082854;28;20049;-64
2022/03/01 02:45:07;;;;;;;;;;;0.70;99.90;;;;;;5082907;28;20527;-64
2022/03/01 02:47:33;;;;;;;24.60;15.15;;;0.70;99.90;;;;;;5076569;28;19920;-64
2022/03/01 02:49:59;;;;;;;22.67;13.90;;;0.70;99.90;;;;;;5063723;28;20044;-64
2022/03/01 02:52:25;;;;;;;23.00;14.23;;;0.70;99.90;;;;;;5063399;28;20483;-64
2022/03/01 02:54:51;;;;;;;20.13;13.50;;;0.80;99.90;;;;;;5063706;28;20041;-64
2022/03/01 02:57:17;;;;;;;20.05;13.10;;;0.70;99.90;;;;;;5083898;28;20040;-64
2022/03/01 02:59:42;;;;;;;23.50;13.30;;;0.70;99.90;;;;;;5084002;28;20043;-64
2022/03/01 03:02:09;;;;;;;22.02;14.32;;;0.80;99.90;;;;;;5083865;28;20515;-64
2022/03/01 03:04:35;;;;;;;22.60;13.77;;;0.80;99.90;;;;;;5079998;28;20055;-64
2022/03/01 03:07:01;;;;;;;20.00;13.60;;;0.80;99.90;;;;;;5063234;28;20053;-64
2022/03/01 03:09:26;;;;;;;20.75;12.98;;;0.80;99.90;;;;;;5064265;28;20064;-64
2022/03/01 03:11:52;;;;;;;23.05;14.32;;;0.90;99.90;;;;;;5078983;28;20044;-64
2022/03/01 03:14:18;;;;;;;22.55;12.88;;;0.80;99.90;;;;;;5064905;28;20036;-64
2022/03/01 03:16:44;;;;;;;21.88;13.23;;;0.90;99.90;;;;;;5065333;28;20476;-64
2022/03/01 03:19:11;;;;;;;23.30;14.05;;;0.90;99.90;;;;;;5063543;28;20044;-64
2022/03/01 03:21:37;;;;;;;20.10;13.55;;;0.90;99.90;;;;;;5062876;28;20108;-64
2022/03/01 03:24:03;;;;;;;19.10;12.55;;;0.90;99.90;;;;;;5064658;28;20127;-64
2022/03/01 03:26:28;;;;;;;23.85;13.80;;;0.90;99.90;;;;;;5082254;28;20489;-64
2022/03/01 03:28:54;;;;;;;23.33;14.27;;;0.80;99.90;;;;;;5083797;28;20089;-64
2022/03/01 03:31:20;;;;;;;21.52;13.20;;;0.90;99.90;;;;;;5099275;28;20036;-64
2022/03/01 03:33:45;;;;;;;28.08;14.38;;;0.80;99.90;;;;;;5082647;28;20108;-65
2022/03/01 03:36:11;;;;;;;23.05;13.43;;;0.90;99.90;;;;;;5063197;28;20079;-64
2022/03/01 03:38:37;;;;;;;22.50;14.55;;;0.90;99.90;;;;;;5064746;28;20051;-64
2022/03/01 03:41:02;;;;;;;23.48;14.85;;;0.90;99.90;;;;;;5067146;28;20041;-64
2022/03/01 03:43:28;;;;;;;20.35;12.63;;;0.90;99.90;;;;;;5067309;28;20044;-64
2022/03/01 03:45:54;;;;;;;23.52;13.73;;;1.00;99.90;;;;;;5068177;28;20041;-64
2022/03/01 03:48:20;;;;;;;20.33;13.00;;;1.10;99.90;;;;;;5065677;28;20637;-64
2022/03/01 03:50:46;;;;;;;23.30;13.75;;;1.10;99.90;;;;;;5082896;28;20041;-64
2022/03/01 03:53:11;;;;;;;20.70;13.27;;;1.10;99.90;;;;;;5081970;28;20057;-64
2022/03/01 03:55:37;;;;;;;21.25;12.68;;;1.20;99.90;;;;;;5076910;28;20048;-64
2022/03/01 03:58:03;;;;;;;19.10;12.73;;;1.20;99.90;;;;;;5084009;28;20059;-64
2022/03/01 04:00:28;;;;;;;22.23;12.70;;;1.30;99.90;;;;;;5086864;28;20473;-64
2022/03/01 04:02:54;;;;;;;20.02;12.70;;;1.30;99.90;;;;;;5086770;28;20095;-64
2022/03/01 04:05:20;;;;;;;23.77;13.20;;;1.20;99.90;;;;;;5081859;28;20494;-64
2022/03/01 04:07:47;;;;;;;21.58;12.80;;;1.20;99.90;;;;;;5086544;28;20049;-64
2022/03/01 04:10:14;;;;;;;19.15;12.52;;;1.30;99.90;;;;;;5086742;28;20501;-64
2022/03/01 04:12:40;;;;;;;21.08;12.15;;;1.20;99.90;;;;;;5086691;28;20052;-64
2022/03/01 04:15:07;;;;;;;19.10;12.48;;;1.20;99.90;;;;;;5081413;28;20416;-64
2022/03/01 04:17:33;;;;;;;19.70;13.57;;;1.20;99.90;;;;;;5066759;28;20052;-64
2022/03/01 04:19:59;;;;;;;19.85;13.07;;;1.20;99.90;;;;;;5066704;28;20345;-64
2022/03/01 04:22:25;;;;;;;22.67;12.75;;;1.20;99.90;;;;;;5065993;28;20053;-64
2022/03/01 04:24:52;;;;;;;19.40;11.60;;;1.30;99.90;;;;;;5071128;28;20171;-64
2022/03/01 04:27:18;;;;;;;19.95;11.70;;;1.30;99.90;;;;;;5086419;28;20045;-64
2022/03/01 04:29:44;;;;;;;17.25;11.02;;;1.40;99.90;;;;;;5086454;28;20106;-64
2022/03/01 04:32:10;;;;;;;20.23;11.57;;;1.40;99.90;;;;;;5086865;28;20188;-64
2022/03/01 04:34:37;;;;;;;18.58;10.48;;;1.50;99.90;;;;;;5083108;28;20040;-64
2022/03/01 04:37:03;;;;;;;16.52;10.68;;;1.50;99.90;;;;;;5065791;28;20041;-64
2022/03/01 04:39:29;;;;;;;21.38;11.27;;;1.60;99.90;;;;;;5066108;28;20041;-64
2022/03/01 04:41:56;;;;;;;20.20;11.43;;;1.60;99.90;;;;;;5066230;28;20076;-64
2022/03/01 04:44:22;;;;;;;17.40;11.20;;;1.70;99.90;;;;;;5066355;28;20044;-64
2022/03/01 04:46:48;;;;;;;19.85;11.48;;;1.80;99.90;;;;;;5085078;28;20052;-64
2022/03/01 04:49:13;;;;;;;22.20;11.68;;;1.80;99.90;;;;;;5085892;28;20074;-64
2022/03/01 04:51:39;;;;;;;18.67;10.82;;;1.90;99.90;;;;;;5084854;28;20055;-63
2022/03/01 04:54:06;;;;;;;20.80;11.93;;;1.90;99.90;;;;;;5084297;28;20066;-63
2022/03/01 04:56:32;;;;;;;17.63;11.40;;;1.90;99.90;;;;;;5085692;28;20040;-65
2022/03/01 04:58:58;;;;;;;20.17;11.10;;;1.90;99.90;;;;;;5085978;28;20040;-64
2022/03/01 05:01:24;;;;;;;16.17;10.40;;;2.00;99.90;;;;;;5086219;28;20485;-63
2022/03/01 05:03:50;;;;;;;18.27;11.05;;;2.00;99.90;;;;;;5079801;28;20045;-63
2022/03/01 05:06:16;;;;;;;16.80;10.55;;;2.00;99.90;;;;;;5065214;28;20056;-65
2022/03/01 05:08:42;;;;;;;18.00;11.25;;;2.00;99.90;;;;;;5083974;28;20040;-64
2022/03/01 05:11:07;;;;;;;17.45;10.65;;;2.00;99.90;;;;;;5077322;28;20071;-63
2022/03/01 05:13:33;;;;;;;19.27;11.90;;;2.10;99.90;;;;;;5065578;28;20067;-63
2022/03/01 05:15:59;;;;;;;18.23;11.27;;;2.10;99.90;;;;;;5066238;28;20083;-63
2022/03/01 05:18:25;;;;;;;16.73;10.95;;;2.10;99.90;;;;;;5066111;28;20055;-63
2022/03/01 05:20:51;;;;;;;16.73;11.05;;;2.10;99.90;;;;;;5078506;28;20048;-63
2022/03/01 05:23:18;;;;;;;18.20;12.00;;;2.10;99.90;;;;;;5085351;28;20048;-64
2022/03/01 05:25:44;;;;;;;16.92;10.57;;;2.10;99.90;;;;;;5077568;28;20067;-63
2022/03/01 05:28:10;;;;;;;15.65;10.23;;;2.10;99.90;;;;;;5089563;28;20051;-64
2022/03/01 05:30:36;;;;;;;18.40;10.75;;;2.20;99.90;;;;;;5085104;28;20053;-63
2022/03/01 05:33:02;;;;;;;18.00;11.00;;;2.20;99.90;;;;;;5084868;28;20048;-64
2022/03/01 05:35:29;;;;;;;17.42;11.15;;;2.30;99.90;;;;;;5084292;28;20381;-64
2022/03/01 05:37:57;;;;;;;16.08;10.45;;;2.30;99.90;;;;;;5069414;28;20049;-65
2022/03/01 05:40:24;;;;;;;;;;;2.30;99.90;;;;;;5066729;28;20040;-65
2022/03/01 05:42:50;;;;;;;19.75;11.05;;;2.30;99.90;;;;;;5085268;28;19947;-65
2022/03/01 05:45:16;;;;;;;16.70;10.23;;;2.30;99.90;;;;;;5082538;28;20109;-64
2022/03/01 05:47:43;;;;;;;19.77;11.75;;;2.20;99.90;;;;;;5071076;28;20131;-64
2022/03/01 05:50:14;;;;;;;18.85;11.45;;;2.20;99.90;;;;;;5083514;28;20064;-64
2022/03/01 05:52:40;;;;;;;18.83;10.95;;;2.20;99.90;;;;;;5082702;28;20045;-64
2022/03/01 05:55:08;;;;;;;18.30;11.15;;;2.20;99.90;;;;;;5074713;28;20048;-64
2022/03/01 05:57:34;;;;;;;18.00;11.02;;;2.20;99.90;;;;;;5066794;28;20524;-64
2022/03/01 06:00:00;;;;;;;18.40;11.05;;;2.20;99.90;;;;;;5066253;28;20044;-64
2022/03/01 06:02:25;;;;;;;21.30;11.23;;;2.20;99.90;;;;;;5080317;28;20603;-64
2022/03/01 06:04:52;;;;;;;20.45;11.88;;;2.20;99.90;;;;;;5083187;28;20110;-65
2022/03/01 06:07:18;;;;;;;18.13;11.90;;;2.20;99.90;;;;;;5083432;28;20108;-65
2022/03/01 06:09:44;;;;;;;22.27;11.65;;;2.30;99.90;;;;;;5084586;28;20097;-64
2022/03/01 06:12:10;;;;;;;19.95;10.80;;;2.20;99.90;;;;;;5083758;28;20500;-64
2022/03/01 06:14:35;;;;;;;21.85;10.63;;;2.30;99.90;;;;;;5084061;28;20043;-64
2022/03/01 06:17:01;;;;;;;18.08;11.32;;;2.50;99.90;;;;;;5083842;28;20048;-64
2022/03/01 06:19:27;;;;;;;18.65;11.35;;;2.40;99.90;;;;;;5064164;28;20411;-65
2022/03/01 06:21:53;;;;;;;21.38;12.63;;;2.40;99.90;;;;;;5063192;28;20064;-65
2022/03/01 06:24:19;;;;;;;20.83;12.77;;;2.40;99.90;;;;;;5064022;28;20106;-64
2022/03/01 06:26:44;;;;;;;22.95;11.82;;;2.40;99.90;;;;;;5079605;28;20049;-64
2022/03/01 06:29:10;;;;;;;20.00;12.25;;;2.40;99.90;;;;;;5079240;28;20041;-64
2022/03/01 06:31:36;;;;;;;20.00;11.52;;;2.50;99.90;;;;;;5063833;28;20052;-64
2022/03/01 06:34:02;;;;;;;19.33;11.38;;;2.60;99.90;;;;;;5065995;28;20120;-64
2022/03/01 06:36:28;;;;;;;17.08;11.10;;;2.60;99.90;;;;;;5083088;28;20131;-64
2022/03/01 06:38:54;;;;;;;16.55;11.70;;;2.60;99.90;;;;;;5069148;28;20044;-64
2022/03/01 06:41:20;;;;;;;18.25;11.48;;;2.50;99.90;;;;;;5062375;28;20044;-64
2022/03/01 06:43:46;;;;;;;18.75;11.95;;;2.60;99.90;;;;;;5063462;28;20113;-64
2022/03/01 06:46:13;;;;;;;17.33;10.93;;;2.70;99.90;;;;;;5068797;28;20575;-65
2022/03/01 06:48:39;;;;;;;18.77;11.30;;;2.90;99.90;;;;;;5099195;28;20131;-64
2022/03/01 06:51:07;;;;;;;22.73;12.52;;;2.70;99.90;;;;;;5068810;28;20049;-65
2022/03/01 06:53:34;;;;;;;21.90;12.20;;;2.70;99.90;;;;;;5062492;28;20051;-64
2022/03/01 06:56:00;;;;;;;24.42;11.60;;;2.80;99.90;;;;;;5063038;28;20051;-64
2022/03/01 06:58:26;;;;;;;20.17;11.48;;;2.70;99.90;;;;;;5063366;28;20095;-64
2022/03/01 07:00:52;;;;;;;21.23;12.65;;;2.70;99.90;;;;;;5072425;28;20044;-65
2022/03/01 07:03:18;;;;;;;18.63;11.27;;;2.70;99.90;;;;;;5081880;28;20065;-64
2022/03/01 07:05:44;;;;;;;17.52;11.48;;;2.80;99.90;;;;;;5083291;28;20055;-64
2022/03/01 07:08:11;;;;;;;17.38;11.75;;;2.80;99.90;;;;;;5083304;28;20052;-65
2022/03/01 07:10:37;;;;;;;21.23;11.32;;;2.80;99.90;;;;;;5081845;28;20049;-64
2022/03/01 07:13:03;;;;;;;19.63;10.82;;;2.80;99.90;;;;;;5082703;28;20125;-64
2022/03/01 07:15:29;;;;;;;19.63;11.70;;;2.90;99.90;;;;;;5086107;28;20044;-64
2022/03/01 07:17:54;;;;;;;22.98;12.43;;;3.00;99.90;;;;;;5071482;28;20048;-64
2022/03/01 07:20:20;;;;;;;18.38;11.50;;;3.00;99.90;;;;;;5066944;28;20123;-64
2022/03/01 07:22:46;;;;;;;20.20;10.77;;;3.10;99.90;;;;;;5066479;28;20041;-64
2022/03/01 07:25:12;;;;;;;23.02;11.73;;;3.10;99.90;;;;;;5074912;28;20083;-64
2022/03/01 07:27:49;;;;;;;22.73;12.93;;;3.30;99.90;;;;;;5074632;28;20074;-64
2022/03/01 07:30:19;;;;;;;18.48;11.48;;;3.20;99.90;;;;;;5084083;28;20051;-64
2022/03/01 07:32:46;;;;;;;23.25;12.35;;;3.30;99.90;;;;;;5091206;28;20052;-64
2022/03/01 07:35:11;;;;;;;24.75;11.80;;;3.30;99.90;;;;;;5082142;28;20037;-64
2022/03/01 07:37:37;;;;;;;25.55;12.63;;;3.30;99.90;;;;;;5079018;28;20044;-65
2022/03/01 07:40:14;;;;;;;16.20;10.82;;;3.40;99.90;;;;;;5102544;28;20044;-63
2022/03/01 07:42:41;;;;;;;16.55;10.95;;;3.40;99.90;;;;;;5102292;28;20056;-65
2022/03/01 07:45:07;;;;;;;17.17;11.40;;;3.40;99.90;;;;;;5086489;28;20139;-64
2022/03/01 07:47:33;;;;;;;19.35;11.48;;;3.40;99.90;;;;;;5085694;28;20045;-64
2022/03/01 07:49:59;;;;;;;21.00;11.02;;;3.40;99.90;;;;;;5102168;28;20072;-64
2022/03/01 07:52:25;;;;;;;19.20;12.18;;;3.50;99.90;;;;;;5086047;28;20047;-64
2022/03/01 07:54:51;;;;;;;20.92;11.65;;;3.50;99.90;;;;;;5086431;28;20068;-64
2022/03/01 07:57:17;;;;;;;22.50;12.05;;;3.50;99.90;;;;;;5084941;28;20107;-64
2022/03/01 07:59:44;;;;;;;24.42;11.50;;;3.60;99.90;;;;;;5074832;28;20048;-64
2022/03/01 08:02:10;;;;;;;19.00;12.35;;;3.60;99.90;;;;;;5086106;28;20408;-64
2022/03/01 08:04:37;;;;;;;20.20;12.23;;;3.60;99.90;;;;;;5072052;28;20079;-64
2022/03/01 08:07:03;;;;;;;20.50;12.25;;;3.70;99.90;;;;;;5066348;28;20082;-64
2022/03/01 08:09:29;;;;;;;18.88;11.40;;;3.70;99.90;;;;;;5072322;28;20072;-64
2022/03/01 08:11:55;;;;;;;19.65;11.75;;;3.70;99.90;;;;;;5089300;28;20040;-64
2022/03/01 08:14:21;;;;;;;20.63;11.05;;;3.70;99.90;;;;;;5086023;28;20068;-64
2022/03/01 08:16:46;;;;;;;18.08;11.20;;;3.80;99.90;;;;;;5079647;28;20114;-64
2022/03/01 08:19:12;;;;;;;18.15;11.65;;;3.80;99.90;;;;;;5066370;28;20044;-64
2022/03/01 08:21:38;;;;;;;18.27;10.88;;;3.90;99.90;;;;;;5065614;28;20069;-64
2022/03/01 08:24:04;;;;;;;17.90;11.75;;;3.90;99.90;;;;;;5066011;28;20051;-64
2022/03/01 08:26:29;;;;;;;21.23;12.85;;;4.00;99.90;;;;;;5067331;28;20048;-64
2022/03/01 08:28:55;;;;;;;20.23;11.70;;;4.00;99.90;;;;;;5097125;28;20040;-64
2022/03/01 08:31:21;;;;;;;17.33;11.68;;;4.00;99.90;;;;;;5095457;28;20055;-64
2022/03/01 08:33:47;;;;;;;17.50;11.82;;;4.10;99.90;;;;;;5104150;28;20040;-64
2022/03/01 08:36:13;;;;;;;20.63;11.52;;;4.10;99.90;;;;;;5100833;28;20495;-64
2022/03/01 08:38:40;;;;;;;20.65;12.35;;;4.20;99.90;;;;;;5097640;28;20064;-64
2022/03/01 08:41:06;;;;;;;16.75;10.38;;;4.30;99.90;;;;;;5097505;28;20515;-64
2022/03/01 08:43:32;;;;;;;20.08;11.98;;;4.30;99.90;;;;;;5085642;28;20049;-64
2022/03/01 08:46:00;;;;;;;18.70;11.93;;;4.40;99.90;;;;;;5093239;28;20044;-64
2022/03/01 08:48:26;;;;;;;20.95;11.40;;;4.50;99.90;;;;;;5103033;28;20118;-66
2022/03/01 08:50:53;;;;;;;19.52;11.48;;;4.60;99.90;;;;;;5084501;28;20048;-65
2022/03/01 08:53:19;;;;;;;15.82;10.95;;;4.70;99.90;;;;;;5085676;28;20100;-65
2022/03/01 08:55:46;;;;;;;20.17;11.57;;;4.70;99.90;;;;;;5097891;28;20043;-65
2022/03/01 08:58:12;;;;;;;19.30;11.25;;;4.90;99.90;;;;;;5083737;28;20427;-65
2022/03/01 09:00:38;;;;;;;19.40;11.90;;;5.00;99.90;;;;;;5070846;28;20079;-65
2022/03/01 09:03:04;;;;;;;19.42;12.57;;;5.20;99.90;;;;;;5077423;28;20052;-65
2022/03/01 09:05:30;;;;;;;17.50;11.93;;;5.30;99.90;;;;;;5076324;28;20056;-65
2022/03/01 09:07:56;;;;;;;23.02;11.80;;;5.40;99.80;;;;;;5084604;28;20052;-64
2022/03/01 09:10:23;;;;;;;20.38;11.63;;;5.50;99.70;;;;;;5084072;28;20083;-65
2022/03/01 09:12:50;;;;;;;21.73;12.55;;;5.60;98.40;;;;;;5077354;28;20190;-65
2022/03/01 09:15:17;;;;;;;18.60;11.73;;;5.80;98.40;;;;;;5078259;28;20454;-65
2022/03/01 09:17:43;;;;;;;27.88;12.73;;;5.90;99.00;;;;;;5072297;28;20084;-65
2022/03/01 09:20:09;;;;;;;17.85;11.48;;;6.00;98.00;;;;;;5073364;28;20101;-65
2022/03/01 09:22:35;;;;;;;19.30;11.65;;;6.00;97.70;;;;;;5070356;28;20048;-67
2022/03/01 09:25:03;;;;;;;20.08;10.98;;;6.20;98.10;;;;;;5081116;28;20056;-64
2022/03/01 09:27:29;;;;;;;20.30;12.25;;;6.20;97.80;;;;;;5084507;28;20075;-63
2022/03/01 09:29:55;;;;;;;20.42;11.95;;;6.30;96.30;;;;;;5082679;28;20037;-66
2022/03/01 09:32:20;;;;;;;17.08;11.65;;;6.30;96.50;;;;;;5064515;28;20136;-63
2022/03/01 09:34:46;;;;;;;17.83;11.57;;;6.30;96.10;;;;;;5078017;28;20359;-66
2022/03/01 09:37:12;;;;;;;20.95;11.82;;;6.30;96.70;;;;;;5085140;28;20499;-66
2022/03/01 09:39:38;;;;;;;21.00;13.10;;;6.30;97.20;;;;;;5080910;28;20112;-66
2022/03/01 09:42:05;;;;;;;18.55;11.88;;;6.30;97.10;;;;;;5081923;28;20484;-64
2022/03/01 09:44:32;;;;;;;16.83;11.07;;;6.30;95.70;;;;;;5073784;28;20120;-65
2022/03/01 09:46:58;;;;;;;20.52;12.27;;;6.20;96.10;;;;;;5077628;28;20413;-64
2022/03/01 09:49:24;;;;;;;20.17;11.93;;;6.30;96.70;;;;;;5084751;28;20056;-74
2022/03/01 09:51:50;;;;;;;22.45;12.18;;;6.20;96.20;;;;;;5069873;28;20170;-74
2022/03/01 09:54:16;;;;;;;18.02;11.48;;;6.20;95.80;;;;;;5080896;28;20040;-73
2022/03/01 09:56:43;;;;;;;19.02;11.82;;;6.30;96.10;;;;;;5080007;28;20083;-65
2022/03/01 09:59:08;;;;;;;18.55;11.90;;;6.30;95.90;;;;;;5084329;28;20554;-67
2022/03/01 10:01:34;;;;;;;19.17;12.07;;;6.40;96.50;;;;;;5065761;28;20040;-67
2022/03/01 10:04:10;;;;;;;17.80;11.25;;;6.50;94.40;;;;;;5077595;28;20067;-66
2022/03/01 10:06:46;;;;;;;17.83;10.45;;;6.70;95.20;;;;;;5081995;28;20260;-68
2022/03/01 10:09:21;;;;;;;17.05;12.07;;;6.90;95.80;;;;;;5064372;28;20045;-72
2022/03/01 10:11:48;;;;;;;17.40;11.63;;;7.10;95.20;;;;;;5077117;28;20083;-70
2022/03/01 10:14:14;;;;;;;16.75;11.77;;;7.40;95.90;;;;;;5063091;28;20048;-68
2022/03/01 10:16:44;;;;;;;21.60;11.38;;;7.60;95.20;;;;;;5076382;28;20080;-67
2022/03/01 10:19:20;;;;;;;17.55;11.05;;;7.70;94.20;;;;;;5070722;28;20070;-68
2022/03/01 10:21:48;;;;;;;16.70;11.25;;;7.90;92.00;;;;;;5076917;28;20048;-69
2022/03/01 10:24:15;;;;;;;23.00;12.50;;;8.10;93.20;;;;;;5075888;28;20052;-69
2022/03/01 10:26:43;;;;;;;20.98;12.77;;;8.30;92.50;;;;;;5082411;28;20087;-70
2022/03/01 10:29:09;;;;;;;17.73;12.40;;;8.60;90.10;;;;;;5083944;28;20466;-76
2022/03/01 10:31:35;;;;;;;23.58;11.80;;;8.80;91.10;;;;;;5083558;28;20049;-68
2022/03/01 10:34:00;;;;;;;18.30;11.98;;;8.90;91.60;;;;;;5083505;28;20048;-71
2022/03/01 10:36:36;;;;;;;17.02;11.20;;;8.90;88.50;;;;;;5073686;28;20053;-69
2022/03/01 10:39:08;;;;;;;18.15;11.27;;;9.00;89.60;;;;;;5066423;28;20071;-70
2022/03/01 10:41:39;;;;;;;16.33;11.05;;;9.10;90.10;;;;;;5084294;28;20496;-66
2022/03/01 10:44:06;;;;;;;18.33;12.45;;;9.00;88.50;;;;;;5083563;28;20044;-65
2022/03/01 10:46:59;;;;;;;17.08;11.93;;;8.70;86.50;;;;;;5083878;28;20094;-70
2022/03/01 10:49:28;;;;;;;18.27;11.70;;;8.80;89.00;;;;;;5074922;28;20068;-70
2022/03/01 10:52:02;;;;;;;18.55;11.00;;;8.70;89.50;;;;;;5084503;28;20047;-71
2022/03/01 10:54:35;;;;;;;17.60;10.52;;;8.90;89.50;;;;;;5080978;28;20580;-70
2022/03/01 10:57:06;;;;;;;19.63;11.80;;;8.70;87.50;;;;;;5070534;28;20044;-69
2022/03/01 10:59:34;;;;;;;19.88;11.40;;;8.60;89.00;;;;;;5081224;28;20517;-67
2022/03/01 11:02:00;;;;;;;15.52;11.68;;;8.70;90.00;;;;;;5082734;28;20052;-68
2022/03/01 11:04:27;;;;;;;19.10;13.43;;;8.60;89.10;;;;;;5082474;28;20052;-66
2022/03/01 11:06:59;;;;;;;17.90;11.55;;;8.70;88.30;;;;;;5079343;28;20067;-66
2022/03/01 11:09:27;;;;;;;19.00;11.77;;;8.60;88.50;;;;;;5081005;28;20057;-64
2022/03/01 11:11:55;;;;;;;18.55;12.75;;;8.60;89.20;;;;;;5082196;28;20170;-65
2022/03/01 11:14:35;;;;;;;17.02;11.73;;;8.50;89.90;;;;;;5073967;28;20049;-67
2022/03/01 11:17:16;;;;;;;17.50;11.82;;;8.40;88.30;;;;;;5080856;28;20110;-67
2022/03/01 11:19:56;;;;;;;18.02;12.82;;;8.50;90.20;;;;;;5081359;28;20048;-66
2022/03/01 11:22:26;;;;;;;21.83;13.68;;;8.60;90.80;;;;;;5088951;28;20108;-72
2022/03/01 11:24:52;;;;;;;20.35;12.93;;;8.60;89.80;;;;;;5085239;28;20489;-69
2022/03/01 11:27:21;;;;;;;18.50;12.75;;;8.70;90.00;;;;;;5078676;28;20052;-67
2022/03/01 11:29:48;;;;;;;20.52;12.52;;;8.90;90.30;;;;;;5066578;28;20060;-71
2022/03/01 11:32:25;;;;;;;18.50;12.63;;;8.90;89.30;;;;;;5063612;28;20044;-69
2022/03/01 11:35:02;;;;;;;18.15;12.00;;;8.80;86.00;;;;;;5071966;28;20083;-73
2022/03/01 11:37:27;;;;;;;18.73;12.15;;;8.90;88.30;;;;;;5078711;28;20041;-71
2022/03/01 11:39:58;;;;;;;18.40;11.65;;;9.00;89.00;;;;;;5065687;28;20074;-71
2022/03/01 11:42:30;;;;;;;17.63;12.30;;;9.10;88.80;;;;;;5077608;28;20053;-71
2022/03/01 11:44:55;;;;;;;18.80;11.98;;;9.10;87.90;;;;;;5074206;28;20120;-68
2022/03/01 11:47:32;;;;;;;20.63;12.55;;;9.00;86.10;;;;;;5081922;28;20068;-74
2022/03/01 11:50:08;;;;;;;17.02;11.77;;;9.10;86.60;;;;;;5074642;28;20056;-71
2022/03/01 11:52:34;;;;;;;17.42;11.70;;;9.00;84.80;;;;;;5081630;28;20036;-68
2022/03/01 11:55:01;;;;;;;18.13;11.35;;;9.10;85.00;;;;;;5081726;28;20485;-67
2022/03/01 11:57:29;;;;;;;;;;;9.00;85.10;;;;;;5075340;28;20041;-64
2022/03/01 11:59:59;;;;;;;18.65;12.43;;;8.90;86.20;;;;;;5093011;28;19925;-64
2022/03/01 12:02:26;;;;;;;21.48;12.93;;;8.90;87.20;;;;;;5087080;28;20052;-64
2022/03/01 12:04:57;;;;;;;20.27;11.57;;;8.90;86.20;;;;;;5085957;28;20117;-65
2022/03/01 12:07:26;;;;;;;21.13;12.75;;;8.80;84.30;;;;;;5078694;28;20048;-63
2022/03/01 12:10:05;;;;;;;18.83;12.45;;;8.60;83.40;;;;;;5085425;28;20047;-64
2022/03/01 12:12:37;;;;;;;22.50;13.07;;;8.50;83.00;;;;;;5085339;28;20044;-64
2022/03/01 12:15:07;;;;;;;18.85;12.77;;;8.50;83.70;;;;;;5081314;28;20048;-65
2022/03/01 12:17:42;;;;;;;18.88;12.18;;;8.40;85.20;;;;;;5080149;28;20067;-63
2022/03/01 12:20:10;;;;;;;20.02;12.90;;;8.30;85.60;;;;;;5081752;28;20140;-65
2022/03/01 12:22:36;;;;;;;18.90;12.50;;;8.20;86.40;;;;;;5084820;28;20051;-65
2022/03/01 12:25:02;;;;;;;21.08;12.80;;;8.20;87.20;;;;;;5084130;28;20044;-65
2022/03/01 12:27:31;;;;;;;20.63;13.45;;;8.20;87.70;;;;;;5091922;28;20108;-65
2022/03/01 12:30:01;;;;;;;17.60;12.43;;;8.30;89.10;;;;;;5076233;28;20048;-66
2022/03/01 12:32:27;;;;;;;20.40;12.98;;;8.30;89.50;;;;;;5077836;28;20048;-67
2022/03/01 12:34:58;;;;;;;22.02;13.65;;;8.40;90.00;;;;;;5085044;28;20127;-67
2022/03/01 12:37:27;;;;;;;23.17;13.50;;;8.40;88.70;;;;;;5083875;28;20047;-67
2022/03/01 12:39:54;;;;;;;20.10;13.88;;;8.50;88.50;;;;;;5083109;28;20401;-67